sensor_id;sensor_type;location;lat;lon;timestamp;temperature;humidity
21387;DHT22;10854;45.922;6.716;2024-01-30T00:01:18;0.00;99.90
21387;DHT22;10854;45.922;6.716;2024-01-30T00:03:46;-0.10;99.90
21387;DHT22;10854;45.922;6.716;2024-01-30T00:06:17;-0.10;99.90
21387;DHT22;10854;45.922;6.716;2024-01-30T00:09:07;-0.10;99.90
21387;DHT22;10854;45.922;6.716;2024-01-30T00:11:37;-0.10;99.90
21387;DHT22;10854;45.922;6.716;2024-01-30T00:14:08;-0.20;99.90
21387;DHT22;10854;45.922;6.716;2024-01-30T00:16:39;-0.20;99.90
21387;DHT22;10854;45.922;6.716;2024-01-30T00:19:08;-0.20;99.90
21387;DHT22;10854;45.922;6.716;2024-01-30T00:21:37;-0.20;99.90
21387;DHT22;10854;45.922;6.716;2024-01-30T00:24:05;-0.10;99.90
21387;DHT22;10854;45.922;6.716;2024-01-30T00:26:34;-0.10;99.90
21387;DHT22;10854;45.922;6.716;2024-01-30T00:29:05;-0.20;99.90
21387;DHT22;10854;45.922;6.716;2024-01-30T00:31:36;-0.20;99.90
21387;DHT22;10854;45.922;6.716;2024-01-30T00:34:08;-0.20;99.90
21387;DHT22;10854;45.922;6.716;2024-01-30T00:36:43;-0.20;99.90
21387;DHT22;10854;45.922;6.716;2024-01-30T00:39:12;-0.30;99.90
21387;DHT22;10854;45.922;6.716;2024-01-30T00:41:40;-0.30;99.90
21387;DHT22;10854;45.922;6.716;2024-01-30T00:44:09;-0.40;99.90
21387;DHT22;10854;45.922;6.716;2024-01-30T00:46:37;-0.40;99.90
21387;DHT22;10854;45.922;6.716;2024-01-30T00:49:06;-0.40;99.90
21387;DHT22;10854;45.922;6.716;2024-01-30T00:51:36;-0.50;99.90
21387;DHT22;10854;45.922;6.716;2024-01-30T00:54:05;-0.50;99.90
21387;DHT22;10854;45.922;6.716;2024-01-30T00:56:35;-0.50;99.90
21387;DHT22;10854;45.922;6.716;2024-01-30T00:59:03;-0.50;99.90
21387;DHT22;10854;45.922;6.716;2024-01-30T01:01:34;-0.50;99.90
21387;DHT22;10854;45.922;6.716;2024-01-30T01:04:03;-0.50;99.90
21387;DHT22;10854;45.922;6.716;2024-01-30T01:06:31;-0.50;99.90
21387;DHT22;10854;45.922;6.716;2024-01-30T01:09:01;-0.60;99.90
21387;DHT22;10854;45.922;6.716;2024-01-30T01:11:31;-0.60;99.90
21387;DHT22;10854;45.922;6.716;2024-01-30T01:14:00;-0.60;99.90
21387;DHT22;10854;45.922;6.716;2024-01-30T01:16:29;-0.60;99.90
21387;DHT22;10854;45.922;6.716;2024-01-30T01:18:59;-0.70;99.90
21387;DHT22;10854;45.922;6.716;2024-01-30T01:21:28;-0.70;99.90
21387;DHT22;10854;45.922;6.716;2024-01-30T01:24:04;-0.70;99.90
21387;DHT22;10854;45.922;6.716;2024-01-30T01:26:33;-0.70;99.90
21387;DHT22;10854;45.922;6.716;2024-01-30T01:29:03;-0.70;99.90
21387;DHT22;10854;45.922;6.716;2024-01-30T01:31:39;-0.70;99.90
21387;DHT22;10854;45.922;6.716;2024-01-30T01:34:14;-0.70;99.90
21387;DHT22;10854;45.922;6.716;2024-01-30T01:36:46;-0.70;99.90
21387;DHT22;10854;45.922;6.716;2024-01-30T01:39:15;-0.60;99.90
21387;DHT22;10854;45.922;6.716;2024-01-30T01:41:46;-0.60;99.90
21387;DHT22;10854;45.922;6.716;2024-01-30T01:44:17;-0.50;99.90
21387;DHT22;10854;45.922;6.716;2024-01-30T01:46:55;-0.60;99.90
21387;DHT22;10854;45.922;6.716;2024-01-30T01:49:30;-0.60;99.90
21387;DHT22;10854;45.922;6.716;2024-01-30T01:52:04;-0.60;99.90
21387;DHT22;10854;45.922;6.716;2024-01-30T01:54:41;-0.60;99.90
21387;DHT22;10854;45.922;6.716;2024-01-30T01:57:10;-0.60;99.90
21387;DHT22;10854;45.922;6.716;2024-01-30T01:59:39;-0.70;99.90
21387;DHT22;10854;45.922;6.716;2024-01-30T02:02:11;-0.70;99.90
21387;DHT22;10854;45.922;6.716;2024-01-30T02:04:41;-0.70;99.90
21387;DHT22;10854;45.922;6.716;2024-01-30T02:07:15;-0.70;99.90
21387;DHT22;10854;45.922;6.716;2024-01-30T02:09:56;-0.70;99.90
21387;DHT22;10854;45.922;6.716;2024-01-30T02:12:32;-0.80;99.90
21387;DHT22;10854;45.922;6.716;2024-01-30T02:15:01;-0.70;99.90
21387;DHT22;10854;45.922;6.716;2024-01-30T02:17:30;-0.70;99.90
21387;DHT22;10854;45.922;6.716;2024-01-30T02:20:02;-0.80;99.90
21387;DHT22;10854;45.922;6.716;2024-01-30T02:22:59;-0.80;99.90
21387;DHT22;10854;45.922;6.716;2024-01-30T02:25:40;-0.80;99.90
21387;DHT22;10854;45.922;6.716;2024-01-30T02:28:23;-0.80;99.90
21387;DHT22;10854;45.922;6.716;2024-01-30T02:30:53;-0.80;99.90
21387;DHT22;10854;45.922;6.716;2024-01-30T02:33:22;-0.80;99.90
21387;DHT22;10854;45.922;6.716;2024-01-30T02:35:51;-0.70;99.90
21387;DHT22;10854;45.922;6.716;2024-01-30T02:38:20;-0.70;99.90
21387;DHT22;10854;45.922;6.716;2024-01-30T02:40:49;-0.70;99.90
21387;DHT22;10854;45.922;6.716;2024-01-30T02:43:21;-0.70;99.90
21387;DHT22;10854;45.922;6.716;2024-01-30T02:45:50;-0.70;99.90
21387;DHT22;10854;45.922;6.716;2024-01-30T02:48:19;-0.70;99.90
21387;DHT22;10854;45.922;6.716;2024-01-30T02:50:49;-0.70;99.90
21387;DHT22;10854;45.922;6.716;2024-01-30T02:53:18;-0.70;99.90
21387;DHT22;10854;45.922;6.716;2024-01-30T02:55:47;-0.70;99.90
21387;DHT22;10854;45.922;6.716;2024-01-30T02:58:38;-0.70;99.90
21387;DHT22;10854;45.922;6.716;2024-01-30T03:01:07;-0.70;99.90
21387;DHT22;10854;45.922;6.716;2024-01-30T03:03:37;-0.60;99.90
21387;DHT22;10854;45.922;6.716;2024-01-30T03:06:10;-0.50;99.90
21387;DHT22;10854;45.922;6.716;2024-01-30T03:08:39;-0.50;99.90
21387;DHT22;10854;45.922;6.716;2024-01-30T03:11:09;-0.50;99.90
21387;DHT22;10854;45.922;6.716;2024-01-30T03:13:38;-0.50;99.90
21387;DHT22;10854;45.922;6.716;2024-01-30T03:16:15;-0.50;99.90
21387;DHT22;10854;45.922;6.716;2024-01-30T03:18:46;-0.40;99.90
21387;DHT22;10854;45.922;6.716;2024-01-30T03:21:15;-0.40;99.90
21387;DHT22;10854;45.922;6.716;2024-01-30T03:23:44;-0.40;99.90
21387;DHT22;10854;45.922;6.716;2024-01-30T03:26:14;-0.40;99.90
21387;DHT22;10854;45.922;6.716;2024-01-30T03:29:08;-0.40;99.90
21387;DHT22;10854;45.922;6.716;2024-01-30T03:31:36;-0.30;99.90
21387;DHT22;10854;45.922;6.716;2024-01-30T03:34:08;-0.30;99.90
21387;DHT22;10854;45.922;6.716;2024-01-30T03:36:37;-0.30;99.90
21387;DHT22;10854;45.922;6.716;2024-01-30T03:39:05;-0.20;99.90
21387;DHT22;10854;45.922;6.716;2024-01-30T03:41:37;-0.20;99.90
21387;DHT22;10854;45.922;6.716;2024-01-30T03:44:06;-0.20;99.90
21387;DHT22;10854;45.922;6.716;2024-01-30T03:46:36;-0.10;99.90
21387;DHT22;10854;45.922;6.716;2024-01-30T03:49:06;-0.10;99.90
21387;DHT22;10854;45.922;6.716;2024-01-30T03:51:35;-0.10;99.90
21387;DHT22;10854;45.922;6.716;2024-01-30T03:54:04;-0.10;99.90
21387;DHT22;10854;45.922;6.716;2024-01-30T03:56:36;-0.10;99.90
21387;DHT22;10854;45.922;6.716;2024-01-30T03:59:06;-0.10;99.90
21387;DHT22;10854;45.922;6.716;2024-01-30T04:01:36;-0.10;99.90
21387;DHT22;10854;45.922;6.716;2024-01-30T04:04:06;-0.10;99.90
21387;DHT22;10854;45.922;6.716;2024-01-30T04:06:36;-0.10;99.90
21387;DHT22;10854;45.922;6.716;2024-01-30T04:09:05;-0.10;99.90
21387;DHT22;10854;45.922;6.716;2024-01-30T04:11:35;-0.10;99.90
21387;DHT22;10854;45.922;6.716;2024-01-30T04:14:05;-0.10;99.90
21387;DHT22;10854;45.922;6.716;2024-01-30T04:16:35;-0.10;99.90
21387;DHT22;10854;45.922;6.716;2024-01-30T04:19:04;-0.10;99.90
21387;DHT22;10854;45.922;6.716;2024-01-30T04:21:32;-0.10;99.90
21387;DHT22;10854;45.922;6.716;2024-01-30T04:24:01;-0.10;99.90
21387;DHT22;10854;45.922;6.716;2024-01-30T04:26:31;-0.10;99.90
21387;DHT22;10854;45.922;6.716;2024-01-30T04:28:59;-0.10;99.90
21387;DHT22;10854;45.922;6.716;2024-01-30T04:31:28;0.00;99.90
21387;DHT22;10854;45.922;6.716;2024-01-30T04:33:57;-0.10;99.90
21387;DHT22;10854;45.922;6.716;2024-01-30T04:36:25;-0.10;99.90
21387;DHT22;10854;45.922;6.716;2024-01-30T04:38:54;-0.20;99.90
21387;DHT22;10854;45.922;6.716;2024-01-30T04:41:24;-0.20;99.90
21387;DHT22;10854;45.922;6.716;2024-01-30T04:43:54;-0.20;99.90
21387;DHT22;10854;45.922;6.716;2024-01-30T04:46:23;-0.20;99.90
21387;DHT22;10854;45.922;6.716;2024-01-30T04:48:51;-0.30;99.90
21387;DHT22;10854;45.922;6.716;2024-01-30T04:51:20;-0.30;99.90
21387;DHT22;10854;45.922;6.716;2024-01-30T04:53:49;-0.30;99.90
21387;DHT22;10854;45.922;6.716;2024-01-30T04:56:19;-0.30;99.90
21387;DHT22;10854;45.922;6.716;2024-01-30T04:58:48;-0.40;99.90
21387;DHT22;10854;45.922;6.716;2024-01-30T05:01:18;-0.40;99.90
21387;DHT22;10854;45.922;6.716;2024-01-30T05:03:47;-0.40;99.90
21387;DHT22;10854;45.922;6.716;2024-01-30T05:06:26;-0.40;99.90
21387;DHT22;10854;45.922;6.716;2024-01-30T05:08:55;-0.40;99.90
21387;DHT22;10854;45.922;6.716;2024-01-30T05:11:26;-0.50;99.90
21387;DHT22;10854;45.922;6.716;2024-01-30T05:13:57;-0.50;99.90
21387;DHT22;10854;45.922;6.716;2024-01-30T05:16:27;-0.40;99.90
21387;DHT22;10854;45.922;6.716;2024-01-30T05:18:56;-0.50;99.90
21387;DHT22;10854;45.922;6.716;2024-01-30T05:21:26;-0.50;99.90
21387;DHT22;10854;45.922;6.716;2024-01-30T05:23:55;-0.50;99.90
21387;DHT22;10854;45.922;6.716;2024-01-30T05:26:38;-0.50;99.90
21387;DHT22;10854;45.922;6.716;2024-01-30T05:29:06;-0.50;99.90
21387;DHT22;10854;45.922;6.716;2024-01-30T05:31:36;-0.50;99.90
21387;DHT22;10854;45.922;6.716;2024-01-30T05:34:05;-0.50;99.90
21387;DHT22;10854;45.922;6.716;2024-01-30T05:36:35;-0.50;99.90
21387;DHT22;10854;45.922;6.716;2024-01-30T05:39:03;-0.60;99.90
21387;DHT22;10854;45.922;6.716;2024-01-30T05:41:34;-0.60;99.90
21387;DHT22;10854;45.922;6.716;2024-01-30T05:44:04;-0.60;99.90
21387;DHT22;10854;45.922;6.716;2024-01-30T05:46:37;-0.60;99.90
21387;DHT22;10854;45.922;6.716;2024-01-30T05:49:08;-0.60;99.90
21387;DHT22;10854;45.922;6.716;2024-01-30T05:51:42;-0.60;99.90
21387;DHT22;10854;45.922;6.716;2024-01-30T05:54:11;-0.60;99.90
21387;DHT22;10854;45.922;6.716;2024-01-30T05:56:41;-0.60;99.90
21387;DHT22;10854;45.922;6.716;2024-01-30T05:59:13;-0.60;99.90
21387;DHT22;10854;45.922;6.716;2024-01-30T06:01:48;-0.70;99.90
21387;DHT22;10854;45.922;6.716;2024-01-30T06:04:19;-0.70;99.90
21387;DHT22;10854;45.922;6.716;2024-01-30T06:06:48;-0.70;99.90
21387;DHT22;10854;45.922;6.716;2024-01-30T06:09:20;-0.70;99.90
21387;DHT22;10854;45.922;6.716;2024-01-30T06:12:10;-0.70;99.90
21387;DHT22;10854;45.922;6.716;2024-01-30T06:14:41;-0.70;99.90
21387;DHT22;10854;45.922;6.716;2024-01-30T06:17:13;-0.70;99.90
21387;DHT22;10854;45.922;6.716;2024-01-30T06:19:42;-0.70;99.90
21387;DHT22;10854;45.922;6.716;2024-01-30T06:22:13;-0.80;99.90
21387;DHT22;10854;45.922;6.716;2024-01-30T06:24:42;-0.70;99.90
21387;DHT22;10854;45.922;6.716;2024-01-30T06:27:13;-0.70;99.90
21387;DHT22;10854;45.922;6.716;2024-01-30T06:29:43;-0.80;99.90
21387;DHT22;10854;45.922;6.716;2024-01-30T06:32:13;-0.80;99.90
21387;DHT22;10854;45.922;6.716;2024-01-30T06:34:42;-0.90;99.90
21387;DHT22;10854;45.922;6.716;2024-01-30T06:37:12;-0.90;99.90
21387;DHT22;10854;45.922;6.716;2024-01-30T06:39:42;-0.90;99.90
21387;DHT22;10854;45.922;6.716;2024-01-30T06:42:10;-1.00;99.90
21387;DHT22;10854;45.922;6.716;2024-01-30T06:44:40;-1.00;99.90
21387;DHT22;10854;45.922;6.716;2024-01-30T06:47:10;-1.00;99.90
21387;DHT22;10854;45.922;6.716;2024-01-30T06:49:39;-1.10;99.90
21387;DHT22;10854;45.922;6.716;2024-01-30T06:52:10;-1.00;99.90
21387;DHT22;10854;45.922;6.716;2024-01-30T06:54:39;-1.00;99.90
21387;DHT22;10854;45.922;6.716;2024-01-30T06:57:07;-1.00;99.90
21387;DHT22;10854;45.922;6.716;2024-01-30T06:59:40;-1.00;99.90
21387;DHT22;10854;45.922;6.716;2024-01-30T07:02:12;-1.00;99.90
21387;DHT22;10854;45.922;6.716;2024-01-30T07:04:40;-1.00;99.90
21387;DHT22;10854;45.922;6.716;2024-01-30T07:07:12;-1.00;99.90
21387;DHT22;10854;45.922;6.716;2024-01-30T07:09:45;-1.00;99.90
21387;DHT22;10854;45.922;6.716;2024-01-30T07:12:18;-1.00;99.90
21387;DHT22;10854;45.922;6.716;2024-01-30T07:14:47;-1.00;99.90
21387;DHT22;10854;45.922;6.716;2024-01-30T07:17:17;-1.00;99.90
21387;DHT22;10854;45.922;6.716;2024-01-30T07:19:55;-1.00;99.90
21387;DHT22;10854;45.922;6.716;2024-01-30T07:22:37;-0.90;99.90
21387;DHT22;10854;45.922;6.716;2024-01-30T07:25:08;-0.90;99.90
21387;DHT22;10854;45.922;6.716;2024-01-30T07:27:37;-0.90;99.90
21387;DHT22;10854;45.922;6.716;2024-01-30T07:30:06;-0.80;99.90
21387;DHT22;10854;45.922;6.716;2024-01-30T07:32:35;-0.80;99.90
21387;DHT22;10854;45.922;6.716;2024-01-30T07:35:04;-0.60;99.90
21387;DHT22;10854;45.922;6.716;2024-01-30T07:37:33;-0.60;99.90
21387;DHT22;10854;45.922;6.716;2024-01-30T07:40:02;-0.50;99.90
21387;DHT22;10854;45.922;6.716;2024-01-30T07:42:32;-0.40;99.90
21387;DHT22;10854;45.922;6.716;2024-01-30T07:45:00;-0.30;99.90
21387;DHT22;10854;45.922;6.716;2024-01-30T07:47:29;-0.20;99.90
21387;DHT22;10854;45.922;6.716;2024-01-30T07:49:58;-0.10;99.90
21387;DHT22;10854;45.922;6.716;2024-01-30T07:52:26;0.00;99.90
21387;DHT22;10854;45.922;6.716;2024-01-30T07:58:14;0.20;99.90
21387;DHT22;10854;45.922;6.716;2024-01-30T08:00:43;0.30;99.90
21387;DHT22;10854;45.922;6.716;2024-01-30T08:03:12;0.40;99.90
21387;DHT22;10854;45.922;6.716;2024-01-30T08:05:40;0.50;99.90
21387;DHT22;10854;45.922;6.716;2024-01-30T08:08:09;0.60;99.90
21387;DHT22;10854;45.922;6.716;2024-01-30T08:10:38;0.70;99.90
21387;DHT22;10854;45.922;6.716;2024-01-30T08:13:06;0.80;99.90
21387;DHT22;10854;45.922;6.716;2024-01-30T08:15:38;0.90;99.90
21387;DHT22;10854;45.922;6.716;2024-01-30T08:18:07;1.00;99.90
21387;DHT22;10854;45.922;6.716;2024-01-30T08:20:38;1.20;99.90
21387;DHT22;10854;45.922;6.716;2024-01-30T08:23:06;1.30;99.90
21387;DHT22;10854;45.922;6.716;2024-01-30T08:25:35;1.50;99.90
21387;DHT22;10854;45.922;6.716;2024-01-30T08:28:04;1.60;99.90
21387;DHT22;10854;45.922;6.716;2024-01-30T08:30:35;1.80;99.90
21387;DHT22;10854;45.922;6.716;2024-01-30T08:33:05;2.00;99.90
21387;DHT22;10854;45.922;6.716;2024-01-30T08:35:39;2.10;99.90
21387;DHT22;10854;45.922;6.716;2024-01-30T08:38:08;2.30;99.90
21387;DHT22;10854;45.922;6.716;2024-01-30T08:40:37;2.50;99.90
21387;DHT22;10854;45.922;6.716;2024-01-30T08:43:06;2.70;99.90
21387;DHT22;10854;45.922;6.716;2024-01-30T08:45:34;2.80;99.90
21387;DHT22;10854;45.922;6.716;2024-01-30T08:48:03;3.00;99.90
21387;DHT22;10854;45.922;6.716;2024-01-30T08:50:32;3.10;99.90
21387;DHT22;10854;45.922;6.716;2024-01-30T08:53:01;3.30;99.90
21387;DHT22;10854;45.922;6.716;2024-01-30T08:55:30;3.50;99.90
21387;DHT22;10854;45.922;6.716;2024-01-30T08:57:59;3.60;99.90
21387;DHT22;10854;45.922;6.716;2024-01-30T09:00:29;3.80;99.90
21387;DHT22;10854;45.922;6.716;2024-01-30T09:02:58;3.90;99.90
21387;DHT22;10854;45.922;6.716;2024-01-30T09:05:26;4.00;99.90
21387;DHT22;10854;45.922;6.716;2024-01-30T09:07:55;4.10;99.90
21387;DHT22;10854;45.922;6.716;2024-01-30T09:10:24;4.30;99.90
21387;DHT22;10854;45.922;6.716;2024-01-30T09:12:53;4.50;99.90
21387;DHT22;10854;45.922;6.716;2024-01-30T09:15:22;4.80;99.90
21387;DHT22;10854;45.922;6.716;2024-01-30T09:17:51;5.20;99.90
21387;DHT22;10854;45.922;6.716;2024-01-30T09:20:20;5.50;99.90
21387;DHT22;10854;45.922;6.716;2024-01-30T09:22:59;5.80;99.90
21387;DHT22;10854;45.922;6.716;2024-01-30T09:25:34;6.00;99.90
21387;DHT22;10854;45.922;6.716;2024-01-30T09:28:13;6.20;99.90
21387;DHT22;10854;45.922;6.716;2024-01-30T09:31:04;6.80;99.90
21387;DHT22;10854;45.922;6.716;2024-01-30T09:33:50;7.70;99.90
21387;DHT22;10854;45.922;6.716;2024-01-30T09:36:54;8.60;99.90
21387;DHT22;10854;45.922;6.716;2024-01-30T09:39:28;9.80;99.90
21387;DHT22;10854;45.922;6.716;2024-01-30T09:42:52;10.90;99.90
21387;DHT22;10854;45.922;6.716;2024-01-30T09:45:14;12.00;94.90
21387;DHT22;10854;45.922;6.716;2024-01-30T09:48:08;12.80;83.80
21387;DHT22;10854;45.922;6.716;2024-01-30T09:51:07;12.70;75.50
21387;DHT22;10854;45.922;6.716;2024-01-30T09:53:45;12.70;76.60
21387;DHT22;10854;45.922;6.716;2024-01-30T09:56:16;12.80;75.10
21387;DHT22;10854;45.922;6.716;2024-01-30T09:58:46;13.10;74.90
21387;DHT22;10854;45.922;6.716;2024-01-30T10:01:53;13.50;73.50
21387;DHT22;10854;45.922;6.716;2024-01-30T10:04:37;13.70;72.50
21387;DHT22;10854;45.922;6.716;2024-01-30T10:07:11;13.70;68.30
21387;DHT22;10854;45.922;6.716;2024-01-30T10:09:40;13.60;67.20
21387;DHT22;10854;45.922;6.716;2024-01-30T10:12:12;13.60;67.50
21387;DHT22;10854;45.922;6.716;2024-01-30T10:14:42;13.80;67.20
21387;DHT22;10854;45.922;6.716;2024-01-30T10:17:12;14.00;65.80
21387;DHT22;10854;45.922;6.716;2024-01-30T10:19:41;14.20;64.90
21387;DHT22;10854;45.922;6.716;2024-01-30T10:22:10;14.20;64.30
21387;DHT22;10854;45.922;6.716;2024-01-30T10:24:38;14.30;63.90
21387;DHT22;10854;45.922;6.716;2024-01-30T10:27:07;14.60;63.90
21387;DHT22;10854;45.922;6.716;2024-01-30T10:29:37;14.90;63.30
21387;DHT22;10854;45.922;6.716;2024-01-30T10:32:05;15.30;62.10
21387;DHT22;10854;45.922;6.716;2024-01-30T10:34:34;15.40;59.90
21387;DHT22;10854;45.922;6.716;2024-01-30T10:37:09;15.20;58.30
21387;DHT22;10854;45.922;6.716;2024-01-30T10:39:46;14.80;58.50
21387;DHT22;10854;45.922;6.716;2024-01-30T10:42:17;14.50;59.20
21387;DHT22;10854;45.922;6.716;2024-01-30T10:47:27;14.60;59.10
21387;DHT22;10854;45.922;6.716;2024-01-30T10:49:56;14.90;59.10
21387;DHT22;10854;45.922;6.716;2024-01-30T10:52:25;15.40;58.60
21387;DHT22;10854;45.922;6.716;2024-01-30T10:54:55;15.70;57.30
21387;DHT22;10854;45.922;6.716;2024-01-30T10:57:24;16.20;56.70
21387;DHT22;10854;45.922;6.716;2024-01-30T11:00:00;16.50;55.20
21387;DHT22;10854;45.922;6.716;2024-01-30T11:02:33;16.80;54.30
21387;DHT22;10854;45.922;6.716;2024-01-30T11:05:02;17.10;54.20
21387;DHT22;10854;45.922;6.716;2024-01-30T11:07:32;17.30;53.40
21387;DHT22;10854;45.922;6.716;2024-01-30T11:10:03;17.40;52.50
21387;DHT22;10854;45.922;6.716;2024-01-30T11:12:33;17.20;51.80
21387;DHT22;10854;45.922;6.716;2024-01-30T11:15:06;17.00;51.10
21387;DHT22;10854;45.922;6.716;2024-01-30T11:17:51;16.80;51.20
21387;DHT22;10854;45.922;6.716;2024-01-30T11:22:54;16.60;51.50
21387;DHT22;10854;45.922;6.716;2024-01-30T11:25:25;16.70;51.60
21387;DHT22;10854;45.922;6.716;2024-01-30T11:27:55;17.00;51.60
21387;DHT22;10854;45.922;6.716;2024-01-30T11:30:27;17.50;51.50
21387;DHT22;10854;45.922;6.716;2024-01-30T11:33:09;18.10;51.30
21387;DHT22;10854;45.922;6.716;2024-01-30T11:35:40;18.80;49.80
21387;DHT22;10854;45.922;6.716;2024-01-30T11:38:10;19.10;50.00
21387;DHT22;10854;45.922;6.716;2024-01-30T11:40:40;19.50;49.50
21387;DHT22;10854;45.922;6.716;2024-01-30T11:43:09;19.90;49.10
21387;DHT22;10854;45.922;6.716;2024-01-30T11:45:37;20.40;48.70
21387;DHT22;10854;45.922;6.716;2024-01-30T11:48:07;20.70;47.80
21387;DHT22;10854;45.922;6.716;2024-01-30T11:50:39;20.60;46.00
21387;DHT22;10854;45.922;6.716;2024-01-30T11:53:08;20.50;45.90
21387;DHT22;10854;45.922;6.716;2024-01-30T11:55:37;20.50;46.40
21387;DHT22;10854;45.922;6.716;2024-01-30T11:58:05;20.60;45.40
21387;DHT22;10854;45.922;6.716;2024-01-30T12:00:34;20.60;45.30
21387;DHT22;10854;45.922;6.716;2024-01-30T12:03:03;20.60;45.50
21387;DHT22;10854;45.922;6.716;2024-01-30T12:05:33;20.50;45.60
21387;DHT22;10854;45.922;6.716;2024-01-30T12:08:01;20.10;45.00
21387;DHT22;10854;45.922;6.716;2024-01-30T12:10:31;19.50;44.70
21387;DHT22;10854;45.922;6.716;2024-01-30T12:13:06;18.60;45.00
21387;DHT22;10854;45.922;6.716;2024-01-30T12:15:46;17.90;46.50
21387;DHT22;10854;45.922;6.716;2024-01-30T12:18:18;17.50;46.40
21387;DHT22;10854;45.922;6.716;2024-01-30T12:20:58;17.20;47.10
21387;DHT22;10854;45.922;6.716;2024-01-30T12:23:30;16.90;47.30
21387;DHT22;10854;45.922;6.716;2024-01-30T12:26:00;16.70;48.10
21387;DHT22;10854;45.922;6.716;2024-01-30T12:28:33;16.80;48.60
21387;DHT22;10854;45.922;6.716;2024-01-30T12:31:10;17.00;48.70
21387;DHT22;10854;45.922;6.716;2024-01-30T12:33:51;17.10;47.80
21387;DHT22;10854;45.922;6.716;2024-01-30T12:37:01;17.20;48.00
21387;DHT22;10854;45.922;6.716;2024-01-30T12:39:37;17.60;48.20
21387;DHT22;10854;45.922;6.716;2024-01-30T12:42:24;17.90;48.10
21387;DHT22;10854;45.922;6.716;2024-01-30T12:45:28;18.40;47.90
21387;DHT22;10854;45.922;6.716;2024-01-30T12:48:04;18.80;47.70
21387;DHT22;10854;45.922;6.716;2024-01-30T12:50:52;19.00;47.40
21387;DHT22;10854;45.922;6.716;2024-01-30T12:53:24;19.30;46.50
21387;DHT22;10854;45.922;6.716;2024-01-30T12:56:05;19.50;46.00
21387;DHT22;10854;45.922;6.716;2024-01-30T12:58:34;19.70;45.70
21387;DHT22;10854;45.922;6.716;2024-01-30T13:01:10;19.60;45.70
21387;DHT22;10854;45.922;6.716;2024-01-30T13:03:40;19.10;45.70
21387;DHT22;10854;45.922;6.716;2024-01-30T13:06:35;18.60;46.40
21387;DHT22;10854;45.922;6.716;2024-01-30T13:09:32;17.80;47.10
21387;DHT22;10854;45.922;6.716;2024-01-30T13:12:24;17.00;48.00
21387;DHT22;10854;45.922;6.716;2024-01-30T13:15:20;16.30;48.90
21387;DHT22;10854;45.922;6.716;2024-01-30T13:18:14;15.70;49.80
21387;DHT22;10854;45.922;6.716;2024-01-30T13:20:49;15.20;50.60
21387;DHT22;10854;45.922;6.716;2024-01-30T13:23:32;15.00;51.40
21387;DHT22;10854;45.922;6.716;2024-01-30T13:26:06;15.20;52.30
21387;DHT22;10854;45.922;6.716;2024-01-30T13:28:50;15.60;51.60
21387;DHT22;10854;45.922;6.716;2024-01-30T13:31:23;16.10;51.40
21387;DHT22;10854;45.922;6.716;2024-01-30T13:34:04;16.60;51.10
21387;DHT22;10854;45.922;6.716;2024-01-30T13:36:35;17.00;50.80
21387;DHT22;10854;45.922;6.716;2024-01-30T13:39:05;17.50;50.10
21387;DHT22;10854;45.922;6.716;2024-01-30T13:41:41;17.90;49.60
21387;DHT22;10854;45.922;6.716;2024-01-30T13:44:11;18.30;49.10
21387;DHT22;10854;45.922;6.716;2024-01-30T13:46:41;18.70;48.50
21387;DHT22;10854;45.922;6.716;2024-01-30T13:49:14;19.10;48.00
21387;DHT22;10854;45.922;6.716;2024-01-30T13:51:46;19.40;47.60
21387;DHT22;10854;45.922;6.716;2024-01-30T13:54:39;19.50;46.00
21387;DHT22;10854;45.922;6.716;2024-01-30T13:57:41;19.20;45.90
21387;DHT22;10854;45.922;6.716;2024-01-30T14:00:14;18.90;46.60
21387;DHT22;10854;45.922;6.716;2024-01-30T14:02:55;18.80;46.80
21387;DHT22;10854;45.922;6.716;2024-01-30T14:05:31;18.80;46.30
21387;DHT22;10854;45.922;6.716;2024-01-30T14:08:27;18.90;46.50
21387;DHT22;10854;45.922;6.716;2024-01-30T14:11:01;19.10;46.70
21387;DHT22;10854;45.922;6.716;2024-01-30T14:13:48;19.30;46.50
21387;DHT22;10854;45.922;6.716;2024-01-30T14:16:26;19.30;45.80
21387;DHT22;10854;45.922;6.716;2024-01-30T14:19:06;19.30;46.00
21387;DHT22;10854;45.922;6.716;2024-01-30T14:21:59;19.20;45.60
21387;DHT22;10854;45.922;6.716;2024-01-30T14:24:37;19.00;45.90
21387;DHT22;10854;45.922;6.716;2024-01-30T14:27:26;18.90;46.10
21387;DHT22;10854;45.922;6.716;2024-01-30T14:29:57;18.60;45.40
21387;DHT22;10854;45.922;6.716;2024-01-30T14:32:45;18.00;45.50
21387;DHT22;10854;45.922;6.716;2024-01-30T14:35:16;17.40;46.50
21387;DHT22;10854;45.922;6.716;2024-01-30T14:38:01;16.90;47.30
21387;DHT22;10854;45.922;6.716;2024-01-30T14:40:58;16.50;48.20
21387;DHT22;10854;45.922;6.716;2024-01-30T14:43:29;16.20;49.10
21387;DHT22;10854;45.922;6.716;2024-01-30T14:46:10;16.30;49.40
21387;DHT22;10854;45.922;6.716;2024-01-30T14:49:05;16.60;49.30
21387;DHT22;10854;45.922;6.716;2024-01-30T14:51:45;16.70;49.20
21387;DHT22;10854;45.922;6.716;2024-01-30T14:54:24;16.70;49.10
21387;DHT22;10854;45.922;6.716;2024-01-30T14:57:01;16.50;49.20
21387;DHT22;10854;45.922;6.716;2024-01-30T14:59:48;16.40;49.50
21387;DHT22;10854;45.922;6.716;2024-01-30T15:02:31;16.30;49.80
21387;DHT22;10854;45.922;6.716;2024-01-30T15:05:05;16.50;49.70
21387;DHT22;10854;45.922;6.716;2024-01-30T15:07:40;16.80;49.50
21387;DHT22;10854;45.922;6.716;2024-01-30T15:10:13;17.00;49.30
21387;DHT22;10854;45.922;6.716;2024-01-30T15:12:48;17.10;49.30
21387;DHT22;10854;45.922;6.716;2024-01-30T15:15:30;17.30;49.20
21387;DHT22;10854;45.922;6.716;2024-01-30T15:18:03;17.30;48.70
21387;DHT22;10854;45.922;6.716;2024-01-30T15:20:54;17.40;48.80
21387;DHT22;10854;45.922;6.716;2024-01-30T15:23:26;17.40;48.60
21387;DHT22;10854;45.922;6.716;2024-01-30T15:26:17;17.10;48.40
21387;DHT22;10854;45.922;6.716;2024-01-30T15:28:48;16.80;48.70
21387;DHT22;10854;45.922;6.716;2024-01-30T15:31:22;16.60;49.40
21387;DHT22;10854;45.922;6.716;2024-01-30T15:33:53;16.60;49.50
21387;DHT22;10854;45.922;6.716;2024-01-30T15:36:28;16.60;49.50
21387;DHT22;10854;45.922;6.716;2024-01-30T15:39:03;16.70;49.60
21387;DHT22;10854;45.922;6.716;2024-01-30T15:41:41;16.60;49.60
21387;DHT22;10854;45.922;6.716;2024-01-30T15:44:10;16.50;49.60
21387;DHT22;10854;45.922;6.716;2024-01-30T15:46:56;16.20;49.70
21387;DHT22;10854;45.922;6.716;2024-01-30T15:49:33;15.80;49.90
21387;DHT22;10854;45.922;6.716;2024-01-30T15:52:08;15.20;50.50
21387;DHT22;10854;45.922;6.716;2024-01-30T15:54:51;14.70;51.60
21387;DHT22;10854;45.922;6.716;2024-01-30T15:57:38;14.20;52.20
21387;DHT22;10854;45.922;6.716;2024-01-30T16:00:07;13.80;53.20
21387;DHT22;10854;45.922;6.716;2024-01-30T16:02:36;13.40;53.90
21387;DHT22;10854;45.922;6.716;2024-01-30T16:05:05;13.10;54.60
21387;DHT22;10854;45.922;6.716;2024-01-30T16:07:35;12.80;55.70
21387;DHT22;10854;45.922;6.716;2024-01-30T16:10:04;12.60;56.50
21387;DHT22;10854;45.922;6.716;2024-01-30T16:12:36;12.20;57.10
21387;DHT22;10854;45.922;6.716;2024-01-30T16:15:05;12.00;58.10
21387;DHT22;10854;45.922;6.716;2024-01-30T16:17:33;11.70;58.80
21387;DHT22;10854;45.922;6.716;2024-01-30T16:20:02;11.40;59.50